createdAt,value
2018-07-31T00:00:26.220Z,80.50
2018-07-31T00:02:53.516Z,80.80
2018-07-31T00:05:20.781Z,81.10
2018-07-31T00:07:48.305Z,80.60
2018-07-31T00:10:15.884Z,81.20
2018-07-31T00:12:44.020Z,81.50
2018-07-31T00:15:11.889Z,83.20
2018-07-31T00:17:39.172Z,82.20
2018-07-31T00:20:06.488Z,82.70
2018-07-31T00:22:37.195Z,81.30
2018-07-31T00:25:09.051Z,82.30
2018-07-31T00:27:36.719Z,81.60
2018-07-31T00:30:06.435Z,83.30
2018-07-31T00:32:33.658Z,81.80
2018-07-31T00:35:10.899Z,83.70
2018-07-31T00:37:38.552Z,83.90
2018-07-31T00:40:05.866Z,83.90
2018-07-31T00:42:33.123Z,83.60
2018-07-31T00:45:02.972Z,84.00
2018-07-31T00:47:30.771Z,84.50
2018-07-31T00:54:52.838Z,85.00
2018-07-31T00:57:54.172Z,85.30
2018-07-31T01:03:14.817Z,85.00
2018-07-31T01:05:42.386Z,86.30
2018-07-31T01:15:39.739Z,87.60
2018-07-31T01:18:07.040Z,85.60
2018-07-31T01:20:34.389Z,87.90
2018-07-31T01:23:01.650Z,88.40
2018-07-31T01:25:28.895Z,89.20
2018-07-31T01:27:56.255Z,89.50
2018-07-31T01:30:25.584Z,90.00
2018-07-31T01:32:52.923Z,90.10
2018-07-31T01:35:25.350Z,90.20
2018-07-31T01:37:52.646Z,90.60
2018-07-31T01:40:19.969Z,90.80
2018-07-31T01:45:19.571Z,91.00
2018-07-31T01:47:48.810Z,91.10
2018-07-31T01:50:52.843Z,91.10
2018-07-31T01:53:20.150Z,91.20
2018-07-31T01:55:48.490Z,91.20
2018-07-31T01:58:15.752Z,91.30
2018-07-31T02:00:43.018Z,91.30
2018-07-31T02:05:58.284Z,91.30
2018-07-31T02:11:05.795Z,91.40
2018-07-31T02:13:33.057Z,91.70
2018-07-31T02:16:00.334Z,91.50
2018-07-31T02:18:27.634Z,91.60
2018-07-31T02:20:54.921Z,91.70
2018-07-31T02:23:26.697Z,91.90
2018-07-31T02:25:57.976Z,91.90
2018-07-31T02:28:41.345Z,92.20
2018-07-31T02:31:08.916Z,92.10
2018-07-31T02:33:36.395Z,91.70
2018-07-31T02:41:23.296Z,92.30
2018-07-31T02:46:32.549Z,92.40
2018-07-31T02:49:14.383Z,92.00
2018-07-31T02:51:41.754Z,92.60
2018-07-31T02:54:09.376Z,92.80
2018-07-31T02:56:36.627Z,92.70
2018-07-31T02:59:04.175Z,93.10
2018-07-31T03:01:31.418Z,93.20
2018-07-31T03:03:58.674Z,93.40
2018-07-31T03:08:53.183Z,93.80
2018-07-31T03:11:20.444Z,93.90
2018-07-31T03:13:47.681Z,93.90
2018-07-31T03:16:15.158Z,94.30
2018-07-31T03:18:42.422Z,94.40
2018-07-31T03:21:10.094Z,94.60
2018-07-31T03:26:05.814Z,94.80
2018-07-31T03:28:33.455Z,94.90
2018-07-31T03:33:29.206Z,95.00
2018-07-31T03:35:56.442Z,94.90
2018-07-31T03:38:23.694Z,95.20
2018-07-31T03:40:51.675Z,95.30
2018-07-31T03:43:19.464Z,96.00
2018-07-31T03:45:47.583Z,94.80
2018-07-31T03:56:14.023Z,95.60
2018-07-31T03:58:41.285Z,95.50
2018-07-31T04:01:08.549Z,95.80
2018-07-31T04:03:44.570Z,96.00
2018-07-31T04:06:12.522Z,96.10
2018-07-31T04:08:58.256Z,96.20
2018-07-31T04:11:32.743Z,96.20
2018-07-31T04:14:00.688Z,96.20
2018-07-31T04:16:27.995Z,96.10
2018-07-31T04:18:55.265Z,95.50
2018-07-31T04:21:22.578Z,96.20
2018-07-31T04:23:49.813Z,96.10
2018-07-31T04:28:46.660Z,95.80
2018-07-31T04:31:14.321Z,95.50
2018-07-31T04:33:41.926Z,95.50
2018-07-31T04:36:09.209Z,95.60
2018-07-31T04:38:36.562Z,95.90
2018-07-31T04:41:03.827Z,95.20
2018-07-31T04:43:31.133Z,95.30
2018-07-31T04:45:58.402Z,95.60
2018-07-31T04:48:25.655Z,95.50
2018-07-31T04:50:52.971Z,95.00
2018-07-31T04:53:20.226Z,95.60
2018-07-31T04:55:47.504Z,95.60
2018-07-31T04:58:14.739Z,95.10
2018-07-31T05:00:42.032Z,95.40
2018-07-31T05:03:09.590Z,95.30
2018-07-31T05:05:37.128Z,95.20
2018-07-31T05:08:04.424Z,95.10
2018-07-31T05:10:31.791Z,95.20
2018-07-31T05:12:59.257Z,95.10
2018-07-31T05:15:26.478Z,95.10
2018-07-31T05:20:20.947Z,94.90
2018-07-31T05:22:48.270Z,94.50
2018-07-31T05:25:15.539Z,94.10
2018-07-31T05:30:10.470Z,93.60
2018-07-31T05:37:32.898Z,92.70
2018-07-31T05:40:00.147Z,92.30
2018-07-31T05:42:27.421Z,92.10
2018-07-31T05:44:54.701Z,91.60
2018-07-31T05:47:21.945Z,91.20
2018-07-31T05:52:16.428Z,90.40
2018-07-31T05:54:43.734Z,89.50
2018-07-31T05:57:11.028Z,89.10
2018-07-31T05:59:38.321Z,87.30
2018-07-31T06:02:05.590Z,87.60
2018-07-31T06:04:32.884Z,85.30
2018-07-31T06:07:00.204Z,85.40
2018-07-31T06:09:27.488Z,83.80
2018-07-31T06:11:54.744Z,82.20
2018-07-31T06:14:22.039Z,82.70
2018-07-31T06:16:49.277Z,83.10
2018-07-31T06:19:16.514Z,83.30
2018-07-31T06:21:43.775Z,83.20
2018-07-31T06:24:11.047Z,83.80
2018-07-31T06:26:38.325Z,82.80
2018-07-31T06:29:05.668Z,82.30
2018-07-31T06:31:32.911Z,81.60
2018-07-31T06:34:00.136Z,81.40
2018-07-31T06:36:27.430Z,81.00
2018-07-31T06:38:54.658Z,79.90
2018-07-31T06:41:21.895Z,78.90
2018-07-31T06:43:49.287Z,78.10
2018-07-31T06:46:16.539Z,77.60
2018-07-31T06:48:43.770Z,78.00
2018-07-31T06:51:11.552Z,75.90
2018-07-31T06:56:06.092Z,74.40
2018-07-31T06:58:33.363Z,74.50
2018-07-31T07:01:00.610Z,71.80
2018-07-31T07:05:55.122Z,68.60
2018-07-31T07:08:22.363Z,66.10
2018-07-31T07:10:49.615Z,66.40
2018-07-31T07:13:16.947Z,65.10
2018-07-31T07:18:11.526Z,62.70
2018-07-31T07:20:38.775Z,61.90
2018-07-31T07:23:05.998Z,58.90
2018-07-31T07:28:00.603Z,57.70
2018-07-31T07:30:27.802Z,56.40
2018-07-31T07:32:55.070Z,55.10
2018-07-31T07:35:22.323Z,54.10
2018-07-31T07:40:16.890Z,51.20
2018-07-31T07:42:44.095Z,48.40
2018-07-31T07:45:11.359Z,48.50
2018-07-31T07:47:38.679Z,47.80
2018-07-31T07:50:05.983Z,46.10
2018-07-31T07:52:33.239Z,45.00
2018-07-31T07:55:00.528Z,43.20
2018-07-31T07:57:27.795Z,42.40
2018-07-31T07:59:55.064Z,40.90
2018-07-31T08:02:22.359Z,40.40
2018-07-31T08:04:49.598Z,39.50
2018-07-31T08:07:16.850Z,38.90
2018-07-31T08:09:44.130Z,37.90
2018-07-31T08:12:11.367Z,36.50
2018-07-31T08:14:38.622Z,35.90
2018-07-31T08:17:06.125Z,35.90
2018-07-31T08:19:33.343Z,34.80
2018-07-31T08:22:00.651Z,34.10
2018-07-31T08:24:27.871Z,32.90
2018-07-31T08:26:55.102Z,31.60
2018-07-31T08:31:49.574Z,31.20
2018-07-31T08:34:16.850Z,30.90
2018-07-31T08:36:44.119Z,30.50
2018-07-31T08:39:11.375Z,30.00
2018-07-31T08:41:38.602Z,28.50
2018-07-31T08:44:06.258Z,27.90
2018-07-31T08:46:33.479Z,28.50
2018-07-31T08:49:00.748Z,27.90
2018-07-31T08:51:28.277Z,27.70
2018-07-31T08:53:55.529Z,27.50
2018-07-31T08:58:50.019Z,26.80
2018-07-31T09:01:17.254Z,26.60
2018-07-31T09:03:44.557Z,26.40
2018-07-31T09:06:11.778Z,26.30
2018-07-31T09:08:39.171Z,25.70
2018-07-31T09:11:06.266Z,26.30
2018-07-31T09:13:33.516Z,25.20
2018-07-31T09:16:00.718Z,25.10
2018-07-31T09:18:27.979Z,25.40
2018-07-31T09:20:55.218Z,24.20
2018-07-31T09:23:22.432Z,24.20
2018-07-31T09:25:49.695Z,24.80
2018-07-31T09:28:17.737Z,23.90
2018-07-31T09:30:50.674Z,22.50
2018-07-31T09:33:17.836Z,23.10
2018-07-31T09:35:45.283Z,22.50
2018-07-31T09:38:12.545Z,22.50
2018-07-31T09:40:39.812Z,22.80
2018-07-31T09:43:07.023Z,22.30
2018-07-31T09:45:34.290Z,22.20
2018-07-31T09:48:01.548Z,22.30
2018-07-31T09:50:29.455Z,23.10
2018-07-31T09:52:56.635Z,21.90
2018-07-31T09:57:51.267Z,21.80
2018-07-31T10:00:23.112Z,21.20
2018-07-31T10:02:51.116Z,21.00
2018-07-31T10:05:18.348Z,22.00
2018-07-31T10:07:45.524Z,20.50
2018-07-31T10:10:12.743Z,20.20
2018-07-31T10:12:40.034Z,22.10
2018-07-31T10:15:07.351Z,20.50
2018-07-31T10:17:34.671Z,20.30
2018-07-31T10:20:01.982Z,19.90
2018-07-31T10:22:29.222Z,20.00
2018-07-31T10:24:56.454Z,19.90
2018-07-31T10:27:23.665Z,19.60
2018-07-31T10:29:50.862Z,19.20
2018-07-31T10:32:18.075Z,20.20
2018-07-31T10:34:45.314Z,19.80
2018-07-31T10:37:12.775Z,20.00
2018-07-31T10:39:39.957Z,19.70
2018-07-31T10:42:07.200Z,19.50
2018-07-31T10:44:34.400Z,19.20
2018-07-31T10:47:01.591Z,19.70
2018-07-31T10:51:56.054Z,18.90
2018-07-31T10:54:23.283Z,18.60
2018-07-31T10:59:17.727Z,18.60
2018-07-31T11:01:44.955Z,18.30
2018-07-31T11:04:12.264Z,18.70
2018-07-31T11:06:40.016Z,18.60
2018-07-31T11:11:35.192Z,18.10
2018-07-31T11:14:02.707Z,17.80
2018-07-31T11:16:29.962Z,17.70
2018-07-31T11:18:57.203Z,18.00
2018-07-31T11:21:24.471Z,17.80
2018-07-31T11:23:51.724Z,17.70
2018-07-31T11:26:18.982Z,18.20
2018-07-31T11:28:46.216Z,18.30
2018-07-31T11:31:13.464Z,18.20
2018-07-31T11:33:40.740Z,18.00
2018-07-31T11:36:08.011Z,18.10
2018-07-31T11:41:02.499Z,18.50
2018-07-31T11:43:29.741Z,18.30
2018-07-31T11:45:56.975Z,18.50
2018-07-31T11:50:51.546Z,20.20
2018-07-31T11:53:18.832Z,21.40
2018-07-31T11:55:46.100Z,20.80
2018-07-31T11:58:13.356Z,20.50
2018-07-31T12:00:40.619Z,19.30
2018-07-31T12:03:07.951Z,19.10
2018-07-31T12:05:35.227Z,17.90
2018-07-31T12:08:02.522Z,18.00
2018-07-31T12:10:29.778Z,17.80
2018-07-31T12:12:57.023Z,18.30
2018-07-31T12:15:24.334Z,18.60
2018-07-31T12:17:51.642Z,18.70
2018-07-31T12:20:18.915Z,19.20
2018-07-31T12:22:46.164Z,20.10
2018-07-31T12:25:13.575Z,20.60
2018-07-31T12:27:40.791Z,21.70
2018-07-31T12:32:35.899Z,22.20
2018-07-31T12:35:03.203Z,23.30
2018-07-31T12:37:30.526Z,23.30
2018-07-31T12:39:57.819Z,23.00
2018-07-31T12:42:25.064Z,22.70
2018-07-31T12:44:52.371Z,24.30
2018-07-31T12:47:19.653Z,24.80
2018-07-31T12:49:46.898Z,24.40
2018-07-31T12:52:14.219Z,25.00
2018-07-31T12:54:41.507Z,24.50
2018-07-31T12:57:08.852Z,24.20
2018-07-31T12:59:36.092Z,24.00
2018-07-31T13:02:03.399Z,23.80
2018-07-31T13:04:30.666Z,25.00
2018-07-31T13:06:57.942Z,24.60
2018-07-31T13:09:25.203Z,24.50
2018-07-31T13:11:52.478Z,24.70
2018-07-31T13:14:19.747Z,23.20
2018-07-31T13:19:14.307Z,24.80
2018-07-31T13:21:41.623Z,25.30
2018-07-31T13:24:08.915Z,24.20
2018-07-31T13:26:36.284Z,23.90
2018-07-31T13:31:30.772Z,24.60
2018-07-31T13:33:58.032Z,25.30
2018-07-31T13:36:25.338Z,25.50
2018-07-31T13:38:52.634Z,25.20
2018-07-31T13:41:19.878Z,25.70
2018-07-31T13:46:14.419Z,25.70
2018-07-31T13:48:41.679Z,26.20
2018-07-31T13:51:08.960Z,26.00
2018-07-31T13:53:36.236Z,26.60
2018-07-31T13:56:03.507Z,26.00
2018-07-31T13:58:30.784Z,25.40
2018-07-31T14:00:58.023Z,25.90
2018-07-31T14:03:25.283Z,26.00
2018-07-31T14:05:52.798Z,25.80
2018-07-31T14:08:20.050Z,24.80
2018-07-31T14:10:47.306Z,25.20
2018-07-31T14:13:14.615Z,25.50
2018-07-31T14:15:41.910Z,25.40
2018-07-31T14:18:09.224Z,26.30
2018-07-31T14:20:36.527Z,25.80
2018-07-31T14:23:03.824Z,25.10
2018-07-31T14:25:31.120Z,25.40
2018-07-31T14:27:58.396Z,25.40
2018-07-31T14:30:25.724Z,25.20
2018-07-31T14:32:52.992Z,25.10
2018-07-31T14:35:20.261Z,25.90
2018-07-31T14:37:47.552Z,25.20
2018-07-31T14:40:14.783Z,25.30
2018-07-31T14:42:42.146Z,25.90
2018-07-31T14:45:09.461Z,25.70
2018-07-31T14:47:36.695Z,25.60
2018-07-31T14:50:04.666Z,25.70
2018-07-31T14:52:31.923Z,25.90
2018-07-31T14:54:59.171Z,25.60
2018-07-31T14:57:26.467Z,25.60
2018-07-31T14:59:53.856Z,26.00
2018-07-31T15:02:21.139Z,25.20
2018-07-31T15:04:48.416Z,25.40
2018-07-31T15:07:15.751Z,25.70
2018-07-31T15:09:43.008Z,25.50
2018-07-31T15:12:10.259Z,25.70
2018-07-31T15:14:37.503Z,25.50
2018-07-31T15:17:04.887Z,26.10
2018-07-31T15:19:32.142Z,26.00
2018-07-31T15:21:59.403Z,25.70
2018-07-31T15:24:26.671Z,26.10
2018-07-31T15:26:54.020Z,25.80
2018-07-31T15:29:21.270Z,26.10
2018-07-31T15:31:48.520Z,25.70
2018-07-31T15:34:15.758Z,25.70
2018-07-31T15:36:43.050Z,25.70
2018-07-31T15:39:12.294Z,25.60
2018-07-31T15:44:07.264Z,25.70
2018-07-31T15:46:34.586Z,25.70
2018-07-31T15:49:01.871Z,26.60
2018-07-31T15:51:29.119Z,26.30
2018-07-31T15:56:23.667Z,26.30
2018-07-31T15:58:51.053Z,26.60
2018-07-31T16:01:18.335Z,26.00
2018-07-31T16:03:45.683Z,26.30
2018-07-31T16:06:13.006Z,26.30
2018-07-31T16:08:40.323Z,25.70
2018-07-31T16:11:07.571Z,26.00
2018-07-31T16:13:34.831Z,26.00
2018-07-31T16:16:02.071Z,26.20
2018-07-31T16:20:56.654Z,26.30
2018-07-31T16:23:23.931Z,26.40
2018-07-31T16:25:51.194Z,26.30
2018-07-31T16:28:18.418Z,26.10
2018-07-31T16:30:45.703Z,25.80
2018-07-31T16:33:12.959Z,26.10
2018-07-31T16:35:40.224Z,26.20
2018-07-31T16:38:07.471Z,26.40
2018-07-31T16:40:35.754Z,26.10
2018-07-31T16:45:30.290Z,26.20
2018-07-31T16:50:24.901Z,26.10
2018-07-31T16:52:52.382Z,26.20
2018-07-31T16:57:46.933Z,27.20
2018-07-31T17:00:14.237Z,26.00
2018-07-31T17:02:41.466Z,26.60
2018-07-31T17:05:08.734Z,26.40
2018-07-31T17:07:35.966Z,28.60
2018-07-31T17:10:03.743Z,30.00
2018-07-31T17:12:30.998Z,29.30
2018-07-31T17:14:58.340Z,29.20
2018-07-31T17:17:25.628Z,29.50
2018-07-31T17:19:52.891Z,29.50
2018-07-31T17:22:20.159Z,29.80
2018-07-31T17:24:47.462Z,30.10
2018-07-31T17:27:14.760Z,30.00
2018-07-31T17:29:42.264Z,30.00
2018-07-31T17:32:09.548Z,29.40
2018-07-31T17:34:36.859Z,29.20
2018-07-31T17:37:11.860Z,29.20
2018-07-31T17:39:46.894Z,29.10
2018-07-31T17:44:46.983Z,29.70
2018-07-31T17:47:14.503Z,29.90
2018-07-31T17:52:09.107Z,30.40
2018-07-31T17:54:36.544Z,30.00
2018-07-31T17:57:03.845Z,30.00
2018-07-31T17:59:32.117Z,29.70
2018-07-31T18:02:01.619Z,30.00
2018-07-31T18:04:29.074Z,30.90
2018-07-31T18:06:56.514Z,31.90
2018-07-31T18:09:23.779Z,31.70
2018-07-31T18:14:18.464Z,31.50
2018-07-31T18:16:45.658Z,31.30
2018-07-31T18:19:12.943Z,31.10
2018-07-31T18:21:40.268Z,31.80
2018-07-31T18:24:07.522Z,31.60
2018-07-31T18:26:35.011Z,31.90
2018-07-31T18:29:02.420Z,33.80
2018-07-31T18:31:29.884Z,34.40
2018-07-31T18:36:26.600Z,34.90
2018-07-31T18:38:53.903Z,35.20
2018-07-31T18:41:24.405Z,35.80
2018-07-31T18:43:51.818Z,35.70
2018-07-31T18:46:19.124Z,36.80
2018-07-31T18:48:46.545Z,36.30
2018-07-31T18:51:13.826Z,36.60
2018-07-31T18:53:41.075Z,36.90
2018-07-31T18:56:08.334Z,37.20
2018-07-31T18:58:35.657Z,37.40
2018-07-31T19:01:03.005Z,37.30
2018-07-31T19:03:30.207Z,37.20
2018-07-31T19:05:57.515Z,38.20
2018-07-31T19:08:24.744Z,38.50
2018-07-31T19:10:52.035Z,39.00
2018-07-31T19:13:19.336Z,39.60
2018-07-31T19:15:46.595Z,40.00
2018-07-31T19:18:13.867Z,41.00
2018-07-31T19:23:08.407Z,41.40
2018-07-31T19:25:35.734Z,41.10
2018-07-31T19:28:03.114Z,41.10
2018-07-31T19:30:30.320Z,42.10
2018-07-31T19:32:57.687Z,42.00
2018-07-31T19:35:25.356Z,42.90
2018-07-31T19:37:52.621Z,42.50
2018-07-31T19:40:19.939Z,43.60
2018-07-31T19:42:47.409Z,44.20
2018-07-31T19:45:14.694Z,44.20
2018-07-31T19:47:41.960Z,44.10
2018-07-31T19:50:10.376Z,43.90
2018-07-31T19:52:37.678Z,43.80
2018-07-31T19:55:07.008Z,44.30
2018-07-31T19:57:34.709Z,44.80
2018-07-31T20:04:58.468Z,46.20
2018-07-31T20:07:25.882Z,46.10
2018-07-31T20:09:53.560Z,46.50
2018-07-31T20:12:20.870Z,46.60
2018-07-31T20:17:15.535Z,46.30
2018-07-31T20:19:42.815Z,47.60
2018-07-31T20:22:10.092Z,49.80
2018-07-31T20:24:37.334Z,51.10
2018-07-31T20:27:04.631Z,51.70
2018-07-31T20:29:32.528Z,51.10
2018-07-31T20:31:59.891Z,51.30
2018-07-31T20:34:27.403Z,51.80
2018-07-31T20:36:54.706Z,50.60
2018-07-31T20:39:21.987Z,51.60
2018-07-31T20:41:49.263Z,53.50
2018-07-31T20:44:16.535Z,52.80
2018-07-31T20:46:43.831Z,53.70
2018-07-31T20:49:33.447Z,54.20
2018-07-31T20:52:00.783Z,54.20
2018-07-31T20:54:28.071Z,56.90
2018-07-31T20:56:55.362Z,56.60
2018-07-31T20:59:22.623Z,55.40
2018-07-31T21:01:51.514Z,55.90
2018-07-31T21:04:18.874Z,57.20
2018-07-31T21:06:52.888Z,51.60
2018-07-31T21:09:21.179Z,49.50
2018-07-31T21:11:50.334Z,50.30
2018-07-31T21:16:48.609Z,50.50
2018-07-31T21:19:15.890Z,51.40
2018-07-31T21:22:03.676Z,54.90
2018-07-31T21:24:30.943Z,57.50
2018-07-31T21:27:37.806Z,59.00
2018-07-31T21:30:08.791Z,59.00
2018-07-31T21:32:36.580Z,58.60
2018-07-31T21:35:04.362Z,59.80
2018-07-31T21:39:59.319Z,57.40
2018-07-31T21:45:16.975Z,56.30
2018-07-31T21:47:53.153Z,57.30
2018-07-31T21:50:20.474Z,56.60
2018-07-31T21:52:47.784Z,57.40
2018-07-31T21:55:15.131Z,57.70
2018-07-31T21:57:42.387Z,58.10
2018-07-31T22:03:04.783Z,58.90
2018-07-31T22:05:32.126Z,58.90
2018-07-31T22:07:59.362Z,59.40
2018-07-31T22:10:26.632Z,59.70
2018-07-31T22:12:53.897Z,59.90
2018-07-31T22:15:21.161Z,60.50
2018-07-31T22:17:48.390Z,60.40
2018-07-31T22:22:43.232Z,61.40
2018-07-31T22:25:10.542Z,62.40
2018-07-31T22:27:38.024Z,63.40
2018-07-31T22:30:05.371Z,63.80
2018-07-31T22:32:32.609Z,64.30
2018-07-31T22:34:59.855Z,67.10
2018-07-31T22:40:05.899Z,70.20
2018-07-31T22:42:33.180Z,70.20
2018-07-31T22:45:00.699Z,70.60
2018-07-31T22:47:27.947Z,69.10
2018-07-31T22:49:55.208Z,67.90
2018-07-31T22:52:25.298Z,68.30
2018-07-31T22:54:53.362Z,66.60
2018-07-31T22:57:20.684Z,66.60
2018-07-31T22:59:47.995Z,67.10
2018-07-31T23:02:18.342Z,67.70
2018-07-31T23:04:45.858Z,68.60
2018-07-31T23:09:41.293Z,67.90
2018-07-31T23:12:08.574Z,67.40
2018-07-31T23:15:17.823Z,67.90
2018-07-31T23:17:45.126Z,67.90
2018-07-31T23:20:12.420Z,68.60
2018-07-31T23:22:45.606Z,69.90
2018-07-31T23:25:12.875Z,70.80
2018-07-31T23:27:40.147Z,69.80
2018-07-31T23:30:07.982Z,70.10
2018-07-31T23:32:35.807Z,71.70
2018-07-31T23:35:03.079Z,73.30
2018-07-31T23:37:30.394Z,74.20
2018-07-31T23:39:58.300Z,75.00
2018-07-31T23:42:25.643Z,75.40
2018-07-31T23:44:53.658Z,76.90
2018-07-31T23:47:24.236Z,78.10
2018-07-31T23:49:51.498Z,78.50
2018-07-31T23:52:18.765Z,77.20
2018-07-31T23:54:46.101Z,79.30
2018-07-31T23:57:13.484Z,79.60
2018-07-31T23:59:40.738Z,80.00
